sensor_id;sensor_type;location;lat;lon;timestamp;pressure;altitude;pressure_sealevel;temperature;humidity
61961;BME280;47923;42.506;24.192;2023-12-07T00:00:22;95022.59;;;2.52;100.00
61961;BME280;47923;42.506;24.192;2023-12-07T00:02:48;95116.59;;;3.13;100.00
61961;BME280;47923;42.506;24.192;2023-12-07T00:05:13;95116.28;;;3.14;100.00
61961;BME280;47923;42.506;24.192;2023-12-07T00:07:39;95116.28;;;3.14;100.00
61961;BME280;47923;42.506;24.192;2023-12-07T00:10:05;94927.84;;;1.81;100.00
61961;BME280;47923;42.506;24.192;2023-12-07T00:12:30;95130.28;;;3.11;100.00
61961;BME280;47923;42.506;24.192;2023-12-07T00:14:56;95124.47;;;3.09;100.00
61961;BME280;47923;42.506;24.192;2023-12-07T00:17:21;95033.88;;;2.48;100.00
61961;BME280;47923;42.506;24.192;2023-12-07T00:19:46;95125.25;;;3.01;100.00
61961;BME280;47923;42.506;24.192;2023-12-07T00:22:12;95133.78;;;2.94;100.00
61961;BME280;47923;42.506;24.192;2023-12-07T00:24:38;95066.84;;;2.35;100.00
61961;BME280;47923;42.506;24.192;2023-12-07T00:27:03;95002.13;;;2.00;100.00
61961;BME280;47923;42.506;24.192;2023-12-07T00:29:30;95135.38;;;2.43;100.00
61961;BME280;47923;42.506;24.192;2023-12-07T00:31:56;95066.84;;;2.27;100.00
61961;BME280;47923;42.506;24.192;2023-12-07T00:34:22;95048.03;;;2.14;100.00
61961;BME280;47923;42.506;24.192;2023-12-07T00:36:48;95083.94;;;2.34;100.00
61961;BME280;47923;42.506;24.192;2023-12-07T00:39:13;95112.00;;;2.49;100.00
61961;BME280;47923;42.506;24.192;2023-12-07T00:41:38;95080.34;;;2.30;100.00
61961;BME280;47923;42.506;24.192;2023-12-07T00:44:04;95093.19;;;2.28;100.00
61961;BME280;47923;42.506;24.192;2023-12-07T00:46:31;95024.50;;;1.82;100.00
61961;BME280;47923;42.506;24.192;2023-12-07T00:48:56;95114.34;;;2.33;100.00
61961;BME280;47923;42.506;24.192;2023-12-07T00:51:21;95034.69;;;1.71;100.00
61961;BME280;47923;42.506;24.192;2023-12-07T00:53:47;95063.53;;;1.95;100.00
61961;BME280;47923;42.506;24.192;2023-12-07T00:56:12;95105.13;;;2.22;100.00
61961;BME280;47923;42.506;24.192;2023-12-07T00:58:38;95117.47;;;2.18;100.00
61961;BME280;47923;42.506;24.192;2023-12-07T01:01:03;95103.38;;;2.09;100.00
61961;BME280;47923;42.506;24.192;2023-12-07T01:03:29;94728.69;;;-0.38;100.00
61961;BME280;47923;42.506;24.192;2023-12-07T01:05:55;95037.47;;;1.49;100.00
61961;BME280;47923;42.506;24.192;2023-12-07T01:08:20;95108.34;;;1.84;100.00
61961;BME280;47923;42.506;24.192;2023-12-07T01:10:46;94926.78;;;0.73;100.00
61961;BME280;47923;42.506;24.192;2023-12-07T01:13:14;95092.34;;;1.76;100.00
61961;BME280;47923;42.506;24.192;2023-12-07T01:15:40;95101.44;;;1.75;100.00
61961;BME280;47923;42.506;24.192;2023-12-07T01:18:06;95009.81;;;1.10;100.00
61961;BME280;47923;42.506;24.192;2023-12-07T01:20:31;95101.88;;;1.68;100.00
61961;BME280;47923;42.506;24.192;2023-12-07T01:22:57;95085.53;;;1.44;100.00
61961;BME280;47923;42.506;24.192;2023-12-07T01:25:22;95109.06;;;1.59;100.00
61961;BME280;47923;42.506;24.192;2023-12-07T01:27:48;95102.19;;;1.58;100.00
61961;BME280;47923;42.506;24.192;2023-12-07T01:30:14;95097.63;;;1.58;100.00
61961;BME280;47923;42.506;24.192;2023-12-07T01:32:39;95082.22;;;1.38;100.00
61961;BME280;47923;42.506;24.192;2023-12-07T01:35:05;95092.75;;;1.52;100.00
61961;BME280;47923;42.506;24.192;2023-12-07T01:37:34;95085.41;;;1.49;100.00
61961;BME280;47923;42.506;24.192;2023-12-07T01:40:00;94699.63;;;-1.05;100.00
61961;BME280;47923;42.506;24.192;2023-12-07T01:42:26;94549.97;;;-2.06;100.00
61961;BME280;47923;42.506;24.192;2023-12-07T01:44:52;95085.31;;;1.31;100.00
61961;BME280;47923;42.506;24.192;2023-12-07T01:47:18;94922.28;;;0.12;100.00
61961;BME280;47923;42.506;24.192;2023-12-07T01:49:43;95106.00;;;1.26;100.00
61961;BME280;47923;42.506;24.192;2023-12-07T01:52:10;94648.78;;;-1.61;100.00
61961;BME280;47923;42.506;24.192;2023-12-07T01:54:37;95028.97;;;0.81;100.00
61961;BME280;47923;42.506;24.192;2023-12-07T01:57:03;95102.84;;;1.24;100.00
61961;BME280;47923;42.506;24.192;2023-12-07T01:59:29;94884.19;;;-0.15;100.00
61961;BME280;47923;42.506;24.192;2023-12-07T02:01:55;95006.75;;;0.46;100.00
61961;BME280;47923;42.506;24.192;2023-12-07T02:04:20;94895.88;;;-0.16;100.00
61961;BME280;47923;42.506;24.192;2023-12-07T02:06:46;95019.47;;;0.35;100.00
61961;BME280;47923;42.506;24.192;2023-12-07T02:09:12;95095.91;;;1.14;100.00
61961;BME280;47923;42.506;24.192;2023-12-07T02:11:37;95054.03;;;0.89;100.00
61961;BME280;47923;42.506;24.192;2023-12-07T02:14:03;95092.00;;;1.12;100.00
61961;BME280;47923;42.506;24.192;2023-12-07T02:17:14;95093.69;;;1.07;100.00
61961;BME280;47923;42.506;24.192;2023-12-07T02:19:47;95020.53;;;0.57;100.00
61961;BME280;47923;42.506;24.192;2023-12-07T02:22:22;95042.81;;;0.69;100.00
61961;BME280;47923;42.506;24.192;2023-12-07T02:27:40;95102.59;;;1.03;100.00
61961;BME280;47923;42.506;24.192;2023-12-07T02:30:08;94849.59;;;-0.54;100.00
61961;BME280;47923;42.506;24.192;2023-12-07T02:32:38;95060.06;;;0.80;100.00
61961;BME280;47923;42.506;24.192;2023-12-07T02:35:05;95103.88;;;1.05;100.00
61961;BME280;47923;42.506;24.192;2023-12-07T02:37:35;95094.22;;;0.87;100.00
61961;BME280;47923;42.506;24.192;2023-12-07T02:40:06;95129.84;;;1.08;100.00
61961;BME280;47923;42.506;24.192;2023-12-07T02:42:37;94923.34;;;0.02;100.00
61961;BME280;47923;42.506;24.192;2023-12-07T02:45:06;95101.53;;;1.13;100.00
61961;BME280;47923;42.506;24.192;2023-12-07T02:47:33;94891.16;;;-0.28;100.00
61961;BME280;47923;42.506;24.192;2023-12-07T02:49:58;95089.16;;;1.08;100.00
61961;BME280;47923;42.506;24.192;2023-12-07T02:52:24;95093.69;;;1.07;100.00
61961;BME280;47923;42.506;24.192;2023-12-07T02:54:49;94957.38;;;0.22;100.00
61961;BME280;47923;42.506;24.192;2023-12-07T02:57:15;94942.16;;;0.14;100.00
61961;BME280;47923;42.506;24.192;2023-12-07T02:59:40;95060.13;;;0.89;100.00
61961;BME280;47923;42.506;24.192;2023-12-07T03:02:06;94790.09;;;-0.85;100.00
61961;BME280;47923;42.506;24.192;2023-12-07T03:04:32;95087.13;;;1.05;100.00
61961;BME280;47923;42.506;24.192;2023-12-07T03:06:57;94902.91;;;-0.20;100.00
61961;BME280;47923;42.506;24.192;2023-12-07T03:09:23;95097.88;;;1.00;100.00
61961;BME280;47923;42.506;24.192;2023-12-07T03:11:48;95012.00;;;0.37;100.00
61961;BME280;47923;42.506;24.192;2023-12-07T03:14:14;95068.34;;;0.79;100.00
61961;BME280;47923;42.506;24.192;2023-12-07T03:16:41;94935.44;;;-0.14;100.00
61961;BME280;47923;42.506;24.192;2023-12-07T03:19:06;95036.09;;;0.41;100.00
61961;BME280;47923;42.506;24.192;2023-12-07T03:21:32;95102.53;;;0.94;100.00
61961;BME280;47923;42.506;24.192;2023-12-07T03:23:57;94899.75;;;-0.44;100.00
61961;BME280;47923;42.506;24.192;2023-12-07T03:26:22;95108.16;;;0.93;100.00
61961;BME280;47923;42.506;24.192;2023-12-07T03:28:48;95055.41;;;0.55;100.00
61961;BME280;47923;42.506;24.192;2023-12-07T03:31:13;95053.53;;;0.55;100.00
61961;BME280;47923;42.506;24.192;2023-12-07T03:33:41;94974.41;;;-0.01;100.00
61961;BME280;47923;42.506;24.192;2023-12-07T03:36:07;95113.03;;;0.91;100.00
61961;BME280;47923;42.506;24.192;2023-12-07T03:38:36;95052.41;;;0.48;100.00
61961;BME280;47923;42.506;24.192;2023-12-07T03:41:02;94815.41;;;-1.01;100.00
61961;BME280;47923;42.506;24.192;2023-12-07T03:43:27;95108.59;;;0.86;100.00
61961;BME280;47923;42.506;24.192;2023-12-07T03:45:53;94679.94;;;-1.94;100.00
61961;BME280;47923;42.506;24.192;2023-12-07T03:48:18;95070.31;;;0.65;100.00
61961;BME280;47923;42.506;24.192;2023-12-07T03:50:43;95105.78;;;0.82;100.00
61961;BME280;47923;42.506;24.192;2023-12-07T03:53:09;95037.28;;;0.35;100.00
61961;BME280;47923;42.506;24.192;2023-12-07T03:55:34;94581.88;;;-2.61;100.00
61961;BME280;47923;42.506;24.192;2023-12-07T03:58:01;95114.84;;;0.81;100.00
61961;BME280;47923;42.506;24.192;2023-12-07T04:00:26;95108.56;;;0.77;100.00
61961;BME280;47923;42.506;24.192;2023-12-07T04:02:52;95093.41;;;0.55;100.00
61961;BME280;47923;42.506;24.192;2023-12-07T04:05:17;95098.19;;;0.67;100.00
61961;BME280;47923;42.506;24.192;2023-12-07T04:07:43;94852.38;;;-0.96;100.00
61961;BME280;47923;42.506;24.192;2023-12-07T04:10:08;94589.59;;;-2.65;100.00
61961;BME280;47923;42.506;24.192;2023-12-07T04:12:34;95002.75;;;-0.10;100.00
61961;BME280;47923;42.506;24.192;2023-12-07T04:15:00;95106.63;;;0.69;100.00
61961;BME280;47923;42.506;24.192;2023-12-07T04:17:25;95110.38;;;0.68;100.00
61961;BME280;47923;42.506;24.192;2023-12-07T04:19:50;95103.00;;;0.65;100.00
61961;BME280;47923;42.506;24.192;2023-12-07T04:22:16;95061.03;;;0.31;100.00
61961;BME280;47923;42.506;24.192;2023-12-07T04:24:41;95120.53;;;0.66;100.00
61961;BME280;47923;42.506;24.192;2023-12-07T04:27:07;94818.81;;;-1.23;100.00
61961;BME280;47923;42.506;24.192;2023-12-07T04:29:32;95040.78;;;-0.01;100.00
61961;BME280;47923;42.506;24.192;2023-12-07T04:31:57;95116.19;;;0.70;100.00
61961;BME280;47923;42.506;24.192;2023-12-07T04:34:23;95113.34;;;0.67;100.00
61961;BME280;47923;42.506;24.192;2023-12-07T04:36:49;95117.06;;;0.66;100.00
61961;BME280;47923;42.506;24.192;2023-12-07T04:39:14;94991.19;;;-0.14;100.00
61961;BME280;47923;42.506;24.192;2023-12-07T04:41:40;94684.88;;;-2.15;100.00
61961;BME280;47923;42.506;24.192;2023-12-07T04:44:05;95127.72;;;0.66;100.00
61961;BME280;47923;42.506;24.192;2023-12-07T04:46:31;95117.88;;;0.66;100.00
61961;BME280;47923;42.506;24.192;2023-12-07T04:48:57;95115.09;;;0.71;100.00
61961;BME280;47923;42.506;24.192;2023-12-07T04:51:22;95123.06;;;0.71;100.00
61961;BME280;47923;42.506;24.192;2023-12-07T04:53:47;95120.41;;;0.71;100.00
61961;BME280;47923;42.506;24.192;2023-12-07T04:56:13;95106.22;;;0.53;100.00
61961;BME280;47923;42.506;24.192;2023-12-07T04:58:38;95121.19;;;0.72;100.00
61961;BME280;47923;42.506;24.192;2023-12-07T05:01:04;95129.78;;;0.69;100.00
61961;BME280;47923;42.506;24.192;2023-12-07T05:03:29;95133.34;;;0.64;100.00
61961;BME280;47923;42.506;24.192;2023-12-07T05:05:55;95116.91;;;0.62;100.00
61961;BME280;47923;42.506;24.192;2023-12-07T05:08:20;94872.78;;;-1.19;100.00
61961;BME280;47923;42.506;24.192;2023-12-07T05:10:46;95115.44;;;0.56;100.00
61961;BME280;47923;42.506;24.192;2023-12-07T05:13:11;95113.56;;;0.57;100.00
61961;BME280;47923;42.506;24.192;2023-12-07T05:15:37;95117.16;;;0.52;100.00
61961;BME280;47923;42.506;24.192;2023-12-07T05:18:03;95117.75;;;0.49;100.00
61961;BME280;47923;42.506;24.192;2023-12-07T05:20:28;95133.22;;;0.47;100.00
61961;BME280;47923;42.506;24.192;2023-12-07T05:22:54;95093.81;;;0.26;100.00
61961;BME280;47923;42.506;24.192;2023-12-07T05:25:20;95027.75;;;-0.11;100.00
61961;BME280;47923;42.506;24.192;2023-12-07T05:27:45;95117.69;;;0.40;100.00
61961;BME280;47923;42.506;24.192;2023-12-07T05:30:11;95075.88;;;0.10;100.00
61961;BME280;47923;42.506;24.192;2023-12-07T05:32:38;94714.91;;;-2.33;100.00
61961;BME280;47923;42.506;24.192;2023-12-07T05:35:03;95119.97;;;0.11;100.00
61961;BME280;47923;42.506;24.192;2023-12-07T05:37:29;95124.31;;;0.29;100.00
61961;BME280;47923;42.506;24.192;2023-12-07T05:39:54;95117.81;;;0.35;100.00
61961;BME280;47923;42.506;24.192;2023-12-07T05:42:20;95031.84;;;-0.28;100.00
61961;BME280;47923;42.506;24.192;2023-12-07T05:44:45;95121.66;;;0.29;100.00
61961;BME280;47923;42.506;24.192;2023-12-07T05:47:11;95066.03;;;-0.12;100.00
61961;BME280;47923;42.506;24.192;2023-12-07T05:49:37;95152.03;;;0.37;100.00
61961;BME280;47923;42.506;24.192;2023-12-07T05:52:03;95118.09;;;0.34;100.00
61961;BME280;47923;42.506;24.192;2023-12-07T05:54:28;95150.22;;;0.23;100.00
61961;BME280;47923;42.506;24.192;2023-12-07T05:56:54;95000.81;;;-0.41;100.00
61961;BME280;47923;42.506;24.192;2023-12-07T05:59:19;95150.00;;;0.56;100.00
61961;BME280;47923;42.506;24.192;2023-12-07T06:01:44;95014.88;;;-0.18;100.00
61961;BME280;47923;42.506;24.192;2023-12-07T06:04:10;94750.94;;;-1.82;100.00
61961;BME280;47923;42.506;24.192;2023-12-07T06:06:37;94986.41;;;-0.26;100.00
61961;BME280;47923;42.506;24.192;2023-12-07T06:09:03;95151.72;;;0.97;100.00
61961;BME280;47923;42.506;24.192;2023-12-07T06:11:31;95029.16;;;0.31;100.00
61961;BME280;47923;42.506;24.192;2023-12-07T06:13:56;95028.78;;;0.46;100.00
61961;BME280;47923;42.506;24.192;2023-12-07T06:16:24;95160.25;;;1.16;100.00
61961;BME280;47923;42.506;24.192;2023-12-07T06:18:49;95122.31;;;1.33;100.00
61961;BME280;47923;42.506;24.192;2023-12-07T06:21:15;95155.31;;;1.63;100.00
61961;BME280;47923;42.506;24.192;2023-12-07T06:23:41;95064.03;;;1.31;100.00
61961;BME280;47923;42.506;24.192;2023-12-07T06:26:07;94462.97;;;-2.66;100.00
61961;BME280;47923;42.506;24.192;2023-12-07T06:28:32;95068.81;;;1.60;100.00
61961;BME280;47923;42.506;24.192;2023-12-07T06:31:04;95118.72;;;2.12;100.00
61961;BME280;47923;42.506;24.192;2023-12-07T06:33:31;95183.69;;;2.68;100.00
61961;BME280;47923;42.506;24.192;2023-12-07T06:35:57;95184.78;;;2.75;100.00
61961;BME280;47923;42.506;24.192;2023-12-07T06:38:22;95186.66;;;2.84;99.33
61961;BME280;47923;42.506;24.192;2023-12-07T06:40:48;95182.59;;;2.69;97.88
61961;BME280;47923;42.506;24.192;2023-12-07T06:43:13;95179.72;;;3.00;97.83
61961;BME280;47923;42.506;24.192;2023-12-07T06:45:39;95141.00;;;2.76;96.84
61961;BME280;47923;42.506;24.192;2023-12-07T06:48:05;95181.63;;;3.17;96.66
61961;BME280;47923;42.506;24.192;2023-12-07T06:50:30;95191.63;;;3.28;96.07
61961;BME280;47923;42.506;24.192;2023-12-07T06:52:56;95193.31;;;3.42;95.59
61961;BME280;47923;42.506;24.192;2023-12-07T06:55:22;95198.13;;;3.66;95.54
61961;BME280;47923;42.506;24.192;2023-12-07T06:57:48;95072.19;;;2.99;93.49
61961;BME280;47923;42.506;24.192;2023-12-07T07:00:13;95194.81;;;4.07;93.28
61961;BME280;47923;42.506;24.192;2023-12-07T07:02:39;94696.06;;;0.88;91.09
61961;BME280;47923;42.506;24.192;2023-12-07T07:05:04;95111.50;;;3.67;90.86
61961;BME280;47923;42.506;24.192;2023-12-07T07:07:31;95079.78;;;3.65;91.13
61961;BME280;47923;42.506;24.192;2023-12-07T07:09:57;95198.56;;;4.35;89.35
61961;BME280;47923;42.506;24.192;2023-12-07T07:12:23;95193.81;;;4.41;89.49
61961;BME280;47923;42.506;24.192;2023-12-07T07:14:48;95142.22;;;3.90;89.34
61961;BME280;47923;42.506;24.192;2023-12-07T07:17:21;94801.44;;;1.61;89.81
61961;BME280;47923;42.506;24.192;2023-12-07T07:19:51;94838.03;;;1.90;89.60
61961;BME280;47923;42.506;24.192;2023-12-07T07:22:17;95201.72;;;4.58;91.07
61961;BME280;47923;42.506;24.192;2023-12-07T07:24:45;95003.53;;;3.47;91.21
61961;BME280;47923;42.506;24.192;2023-12-07T07:27:10;94819.38;;;2.37;90.60
61961;BME280;47923;42.506;24.192;2023-12-07T07:29:39;95208.56;;;5.10;90.38
61961;BME280;47923;42.506;24.192;2023-12-07T07:32:05;94784.91;;;2.32;89.83
61961;BME280;47923;42.506;24.192;2023-12-07T07:34:31;95207.19;;;5.04;89.80
61961;BME280;47923;42.506;24.192;2023-12-07T07:36:56;95198.47;;;4.94;90.30
61961;BME280;47923;42.506;24.192;2023-12-07T07:39:22;95213.78;;;5.06;91.00
61961;BME280;47923;42.506;24.192;2023-12-07T07:41:47;95214.00;;;5.01;90.52
61961;BME280;47923;42.506;24.192;2023-12-07T07:44:13;95206.75;;;5.02;91.03
61961;BME280;47923;42.506;24.192;2023-12-07T07:46:43;95217.50;;;5.14;90.51
61961;BME280;47923;42.506;24.192;2023-12-07T07:49:09;95227.63;;;5.29;90.47
61961;BME280;47923;42.506;24.192;2023-12-07T07:51:34;95150.81;;;4.88;89.72
61961;BME280;47923;42.506;24.192;2023-12-07T07:54:00;95131.72;;;4.89;89.66
61961;BME280;47923;42.506;24.192;2023-12-07T07:56:26;95218.19;;;5.56;89.07
61961;BME280;47923;42.506;24.192;2023-12-07T07:58:51;95214.13;;;5.83;89.09
61961;BME280;47923;42.506;24.192;2023-12-07T08:01:16;95218.88;;;5.98;88.42
61961;BME280;47923;42.506;24.192;2023-12-07T08:03:42;95096.25;;;5.38;87.78
61961;BME280;47923;42.506;24.192;2023-12-07T08:06:07;95159.31;;;5.93;86.09
61961;BME280;47923;42.506;24.192;2023-12-07T08:08:33;95099.19;;;5.45;85.96
61961;BME280;47923;42.506;24.192;2023-12-07T08:10:59;95146.97;;;5.67;85.89
61961;BME280;47923;42.506;24.192;2023-12-07T08:13:24;95065.34;;;5.40;85.81
61961;BME280;47923;42.506;24.192;2023-12-07T08:15:50;95231.72;;;6.54;86.19
61961;BME280;47923;42.506;24.192;2023-12-07T08:18:15;95170.34;;;6.28;84.93
61961;BME280;47923;42.506;24.192;2023-12-07T08:20:41;95184.75;;;6.35;85.24
61961;BME280;47923;42.506;24.192;2023-12-07T08:23:06;95092.91;;;6.02;85.31
61961;BME280;47923;42.506;24.192;2023-12-07T08:25:32;95207.56;;;7.06;84.26
61961;BME280;47923;42.506;24.192;2023-12-07T08:27:57;95233.72;;;7.37;82.26
61961;BME280;47923;42.506;24.192;2023-12-07T08:30:23;95225.75;;;7.41;81.85
61961;BME280;47923;42.506;24.192;2023-12-07T08:32:48;95242.72;;;7.57;81.08
61961;BME280;47923;42.506;24.192;2023-12-07T08:35:14;95226.06;;;7.52;81.20
61961;BME280;47923;42.506;24.192;2023-12-07T08:37:39;95245.63;;;7.80;81.08
61961;BME280;47923;42.506;24.192;2023-12-07T08:40:05;95240.44;;;8.03;79.26
61961;BME280;47923;42.506;24.192;2023-12-07T08:42:31;95078.84;;;7.01;78.86
61961;BME280;47923;42.506;24.192;2023-12-07T08:44:57;95171.78;;;7.78;79.01
61961;BME280;47923;42.506;24.192;2023-12-07T08:47:22;95244.44;;;8.09;78.73
61961;BME280;47923;42.506;24.192;2023-12-07T08:49:48;95055.63;;;6.93;78.38
61961;BME280;47923;42.506;24.192;2023-12-07T08:52:13;95219.63;;;8.47;77.84
61961;BME280;47923;42.506;24.192;2023-12-07T08:54:39;95220.50;;;8.71;77.19
61961;BME280;47923;42.506;24.192;2023-12-07T08:57:04;95256.97;;;9.19;76.45
61961;BME280;47923;42.506;24.192;2023-12-07T08:59:30;95155.19;;;8.39;74.95
61961;BME280;47923;42.506;24.192;2023-12-07T09:01:56;95233.09;;;9.02;77.18
61961;BME280;47923;42.506;24.192;2023-12-07T09:04:21;95171.06;;;8.79;76.04
61961;BME280;47923;42.506;24.192;2023-12-07T09:06:46;95072.47;;;8.20;74.43
61961;BME280;47923;42.506;24.192;2023-12-07T09:09:12;95248.09;;;9.19;74.16
61961;BME280;47923;42.506;24.192;2023-12-07T09:11:37;94853.28;;;6.70;73.22
61961;BME280;47923;42.506;24.192;2023-12-07T09:14:03;95203.47;;;9.02;74.36
61961;BME280;47923;42.506;24.192;2023-12-07T09:16:28;94942.75;;;7.21;73.42
61961;BME280;47923;42.506;24.192;2023-12-07T09:18:54;95228.88;;;9.20;76.19
61961;BME280;47923;42.506;24.192;2023-12-07T09:21:19;95225.63;;;9.11;74.81
61961;BME280;47923;42.506;24.192;2023-12-07T09:23:45;95225.94;;;9.09;74.43
61961;BME280;47923;42.506;24.192;2023-12-07T09:26:10;94805.94;;;6.14;74.23
61961;BME280;47923;42.506;24.192;2023-12-07T09:28:36;95183.97;;;8.89;76.97
61961;BME280;47923;42.506;24.192;2023-12-07T09:31:01;95119.44;;;8.57;73.88
61961;BME280;47923;42.506;24.192;2023-12-07T09:33:27;94952.16;;;7.31;74.28
61961;BME280;47923;42.506;24.192;2023-12-07T09:35:53;95134.41;;;8.55;71.55
61961;BME280;47923;42.506;24.192;2023-12-07T09:38:19;95120.84;;;8.51;72.48
61961;BME280;47923;42.506;24.192;2023-12-07T09:40:45;95223.69;;;9.50;73.56
61961;BME280;47923;42.506;24.192;2023-12-07T09:43:11;95228.19;;;9.85;71.40
61961;BME280;47923;42.506;24.192;2023-12-07T09:45:37;95059.47;;;8.99;72.19
61961;BME280;47923;42.506;24.192;2023-12-07T09:48:03;95214.53;;;10.43;69.88
61961;BME280;47923;42.506;24.192;2023-12-07T09:50:29;95220.94;;;10.35;68.26
61961;BME280;47923;42.506;24.192;2023-12-07T09:52:56;95214.94;;;10.45;69.91
61961;BME280;47923;42.506;24.192;2023-12-07T09:55:23;95164.09;;;10.50;70.08
61961;BME280;47923;42.506;24.192;2023-12-07T09:57:50;95121.03;;;10.35;66.00
61961;BME280;47923;42.506;24.192;2023-12-07T10:00:17;95208.44;;;11.36;65.08
61961;BME280;47923;42.506;24.192;2023-12-07T10:02:46;95152.25;;;11.22;64.48
61961;BME280;47923;42.506;24.192;2023-12-07T10:05:13;95214.06;;;11.54;63.58
61961;BME280;47923;42.506;24.192;2023-12-07T10:07:47;95167.06;;;11.32;62.28
61961;BME280;47923;42.506;24.192;2023-12-07T10:10:17;94856.28;;;9.57;62.68
61961;BME280;47923;42.506;24.192;2023-12-07T10:12:58;95204.16;;;12.50;61.38
61961;BME280;47923;42.506;24.192;2023-12-07T10:15:24;95188.22;;;12.41;57.77
61961;BME280;47923;42.506;24.192;2023-12-07T10:17:56;95165.28;;;12.90;59.71
61961;BME280;47923;42.506;24.192;2023-12-07T10:20:23;95190.72;;;13.37;56.96
61961;BME280;47923;42.506;24.192;2023-12-07T10:25:31;95041.41;;;12.18;55.95
61961;BME280;47923;42.506;24.192;2023-12-07T10:27:57;95192.13;;;13.10;55.42
61961;BME280;47923;42.506;24.192;2023-12-07T10:30:22;94918.63;;;10.83;55.63
61961;BME280;47923;42.506;24.192;2023-12-07T10:32:52;95196.91;;;12.65;56.27
61961;BME280;47923;42.506;24.192;2023-12-07T10:35:18;95182.97;;;12.70;56.90
61961;BME280;47923;42.506;24.192;2023-12-07T10:37:44;95063.22;;;11.40;57.18
61961;BME280;47923;42.506;24.192;2023-12-07T10:40:10;95187.16;;;12.09;57.42
61961;BME280;47923;42.506;24.192;2023-12-07T10:42:37;95191.41;;;11.69;59.08
61961;BME280;47923;42.506;24.192;2023-12-07T10:45:05;95153.09;;;11.26;60.69
61961;BME280;47923;42.506;24.192;2023-12-07T10:47:37;95125.13;;;11.12;61.13
61961;BME280;47923;42.506;24.192;2023-12-07T10:50:07;95122.97;;;10.64;61.45
61961;BME280;47923;42.506;24.192;2023-12-07T10:52:48;95197.91;;;11.27;62.88
61961;BME280;47923;42.506;24.192;2023-12-07T10:55:21;95063.03;;;10.55;61.93
61961;BME280;47923;42.506;24.192;2023-12-07T10:57:52;95113.22;;;10.86;61.05
61961;BME280;47923;42.506;24.192;2023-12-07T11:00:22;95102.59;;;10.70;62.07
61961;BME280;47923;42.506;24.192;2023-12-07T11:02:53;95183.06;;;11.14;63.08
61961;BME280;47923;42.506;24.192;2023-12-07T11:05:18;94819.91;;;8.64;62.45
61961;BME280;47923;42.506;24.192;2023-12-07T11:08:02;95174.59;;;10.86;62.62
61961;BME280;47923;42.506;24.192;2023-12-07T11:10:47;95167.13;;;10.75;64.24
61961;BME280;47923;42.506;24.192;2023-12-07T11:13:26;95169.00;;;10.71;64.90
61961;BME280;47923;42.506;24.192;2023-12-07T11:15:52;95171.41;;;10.50;64.52
61961;BME280;47923;42.506;24.192;2023-12-07T11:18:18;94704.59;;;7.32;65.41
61961;BME280;47923;42.506;24.192;2023-12-07T11:20:45;95175.28;;;10.26;66.71
61961;BME280;47923;42.506;24.192;2023-12-07T11:23:17;95167.56;;;10.24;68.54
61961;BME280;47923;42.506;24.192;2023-12-07T11:25:47;95088.47;;;9.75;68.24
61961;BME280;47923;42.506;24.192;2023-12-07T11:28:14;95182.13;;;10.43;68.57
61961;BME280;47923;42.506;24.192;2023-12-07T11:30:45;95169.34;;;10.17;68.04
61961;BME280;47923;42.506;24.192;2023-12-07T11:33:11;95116.22;;;9.75;71.54
61961;BME280;47923;42.506;24.192;2023-12-07T11:38:28;95158.78;;;10.08;71.61
61961;BME280;47923;42.506;24.192;2023-12-07T11:40:54;95110.38;;;9.92;71.23
61961;BME280;47923;42.506;24.192;2023-12-07T11:46:00;95025.72;;;9.28;70.36
61961;BME280;47923;42.506;24.192;2023-12-07T11:48:26;95091.84;;;9.68;71.31
61961;BME280;47923;42.506;24.192;2023-12-07T11:50:58;95156.03;;;10.05;69.75
61961;BME280;47923;42.506;24.192;2023-12-07T11:53:28;95087.22;;;9.68;69.90
61961;BME280;47923;42.506;24.192;2023-12-07T11:55:57;95009.66;;;9.12;70.31
61961;BME280;47923;42.506;24.192;2023-12-07T11:58:27;95138.22;;;10.23;70.75
61961;BME280;47923;42.506;24.192;2023-12-07T12:00:54;95142.22;;;10.33;69.89
61961;BME280;47923;42.506;24.192;2023-12-07T12:03:22;95117.16;;;10.09;68.03
61961;BME280;47923;42.506;24.192;2023-12-07T12:05:47;94789.97;;;8.00;67.94
61961;BME280;47923;42.506;24.192;2023-12-07T12:08:13;95058.00;;;9.71;67.50
61961;BME280;47923;42.506;24.192;2023-12-07T12:10:40;95143.47;;;10.39;67.62
61961;BME280;47923;42.506;24.192;2023-12-07T12:13:07;95133.84;;;10.41;66.75
61961;BME280;47923;42.506;24.192;2023-12-07T12:15:33;95131.94;;;10.42;66.69
61961;BME280;47923;42.506;24.192;2023-12-07T12:18:00;95077.72;;;10.01;67.12
61961;BME280;47923;42.506;24.192;2023-12-07T12:20:26;94765.91;;;7.65;65.80
61961;BME280;47923;42.506;24.192;2023-12-07T12:22:51;95049.06;;;9.44;67.18
61961;BME280;47923;42.506;24.192;2023-12-07T12:25:24;95049.44;;;9.19;68.02
61961;BME280;47923;42.506;24.192;2023-12-07T12:27:58;94728.38;;;6.91;68.35
61961;BME280;47923;42.506;24.192;2023-12-07T12:30:24;94762.09;;;7.08;67.53
61961;BME280;47923;42.506;24.192;2023-12-07T12:32:50;95165.66;;;9.37;67.40
61961;BME280;47923;42.506;24.192;2023-12-07T12:35:17;95134.44;;;9.36;67.58
61961;BME280;47923;42.506;24.192;2023-12-07T12:37:44;95144.25;;;9.25;68.73
61961;BME280;47923;42.506;24.192;2023-12-07T12:40:11;95137.88;;;8.94;68.26
61961;BME280;47923;42.506;24.192;2023-12-07T12:42:37;95146.19;;;8.85;68.49
61961;BME280;47923;42.506;24.192;2023-12-07T12:45:08;95075.00;;;8.48;69.25
61961;BME280;47923;42.506;24.192;2023-12-07T12:47:34;95145.53;;;8.73;69.38
61961;BME280;47923;42.506;24.192;2023-12-07T12:50:02;95149.97;;;8.65;70.24
61961;BME280;47923;42.506;24.192;2023-12-07T12:52:31;95139.72;;;8.71;70.67
61961;BME280;47923;42.506;24.192;2023-12-07T12:54:57;94989.41;;;7.64;70.19
61961;BME280;47923;42.506;24.192;2023-12-07T12:57:23;95122.28;;;8.45;70.59
61961;BME280;47923;42.506;24.192;2023-12-07T12:59:50;95101.97;;;8.32;70.37